sensor_id;sensor_type;location;lat;lon;timestamp;P1;durP1;ratioP1;P2;durP2;ratioP2
55827;SDS011;41758;51.992;5.890;2023-04-01T00:01:09;11.60;;;4.00;;
55827;SDS011;41758;51.992;5.890;2023-04-01T00:03:38;7.60;;;3.75;;
55827;SDS011;41758;51.992;5.890;2023-04-01T00:06:04;8.30;;;3.83;;
55827;SDS011;41758;51.992;5.890;2023-04-01T00:08:30;10.70;;;4.40;;
55827;SDS011;41758;51.992;5.890;2023-04-01T00:10:56;6.97;;;3.90;;
55827;SDS011;41758;51.992;5.890;2023-04-01T00:13:23;8.07;;;4.00;;
55827;SDS011;41758;51.992;5.890;2023-04-01T00:15:51;7.75;;;4.30;;
55827;SDS011;41758;51.992;5.890;2023-04-01T00:18:17;9.63;;;4.05;;
55827;SDS011;41758;51.992;5.890;2023-04-01T00:20:44;9.05;;;4.18;;
55827;SDS011;41758;51.992;5.890;2023-04-01T00:23:13;7.47;;;3.90;;
55827;SDS011;41758;51.992;5.890;2023-04-01T00:25:40;5.95;;;3.90;;
55827;SDS011;41758;51.992;5.890;2023-04-01T00:28:06;8.48;;;4.40;;
55827;SDS011;41758;51.992;5.890;2023-04-01T00:30:32;7.38;;;4.50;;
55827;SDS011;41758;51.992;5.890;2023-04-01T00:32:58;7.65;;;4.60;;
55827;SDS011;41758;51.992;5.890;2023-04-01T00:35:23;7.50;;;5.22;;
55827;SDS011;41758;51.992;5.890;2023-04-01T00:37:49;7.82;;;6.05;;
55827;SDS011;41758;51.992;5.890;2023-04-01T00:40:25;8.45;;;5.95;;
55827;SDS011;41758;51.992;5.890;2023-04-01T00:42:57;8.82;;;6.90;;
55827;SDS011;41758;51.992;5.890;2023-04-01T00:47:49;11.93;;;7.18;;
55827;SDS011;41758;51.992;5.890;2023-04-01T00:50:15;11.48;;;8.10;;
55827;SDS011;41758;51.992;5.890;2023-04-01T00:52:41;9.98;;;7.15;;
55827;SDS011;41758;51.992;5.890;2023-04-01T00:55:07;15.10;;;10.02;;
55827;SDS011;41758;51.992;5.890;2023-04-01T00:57:38;10.85;;;8.88;;
55827;SDS011;41758;51.992;5.890;2023-04-01T01:00:09;10.95;;;8.98;;
55827;SDS011;41758;51.992;5.890;2023-04-01T01:02:36;12.65;;;10.23;;
55827;SDS011;41758;51.992;5.890;2023-04-01T01:05:03;10.80;;;9.50;;
55827;SDS011;41758;51.992;5.890;2023-04-01T01:07:36;13.55;;;11.38;;
55827;SDS011;41758;51.992;5.890;2023-04-01T01:12:53;17.23;;;14.25;;
55827;SDS011;41758;51.992;5.890;2023-04-01T01:16:10;17.83;;;15.93;;
55827;SDS011;41758;51.992;5.890;2023-04-01T01:18:51;17.40;;;15.50;;
55827;SDS011;41758;51.992;5.890;2023-04-01T01:26:53;21.08;;;17.27;;
55827;SDS011;41758;51.992;5.890;2023-04-01T01:32:50;19.85;;;16.58;;
55827;SDS011;41758;51.992;5.890;2023-04-01T01:35:38;22.75;;;18.45;;
55827;SDS011;41758;51.992;5.890;2023-04-01T01:38:18;24.50;;;18.48;;
55827;SDS011;41758;51.992;5.890;2023-04-01T01:40:54;25.15;;;20.63;;
55827;SDS011;41758;51.992;5.890;2023-04-01T01:43:36;20.05;;;18.05;;
55827;SDS011;41758;51.992;5.890;2023-04-01T01:46:08;21.17;;;18.97;;
55827;SDS011;41758;51.992;5.890;2023-04-01T01:48:38;23.15;;;19.40;;
55827;SDS011;41758;51.992;5.890;2023-04-01T01:51:07;21.63;;;19.42;;
55827;SDS011;41758;51.992;5.890;2023-04-01T01:53:33;22.23;;;18.42;;
55827;SDS011;41758;51.992;5.890;2023-04-01T01:55:59;21.63;;;17.48;;
55827;SDS011;41758;51.992;5.890;2023-04-01T01:58:30;25.02;;;18.30;;
55827;SDS011;41758;51.992;5.890;2023-04-01T02:01:07;22.35;;;17.20;;
55827;SDS011;41758;51.992;5.890;2023-04-01T02:03:39;19.73;;;16.15;;
55827;SDS011;41758;51.992;5.890;2023-04-01T02:06:07;19.80;;;14.40;;
55827;SDS011;41758;51.992;5.890;2023-04-01T02:11:17;18.02;;;12.45;;
55827;SDS011;41758;51.992;5.890;2023-04-01T02:16:23;26.83;;;14.68;;
55827;SDS011;41758;51.992;5.890;2023-04-01T02:18:55;20.52;;;13.95;;
55827;SDS011;41758;51.992;5.890;2023-04-01T02:21:23;25.95;;;13.88;;
55827;SDS011;41758;51.992;5.890;2023-04-01T02:23:53;24.88;;;13.35;;
55827;SDS011;41758;51.992;5.890;2023-04-01T02:26:20;20.95;;;12.95;;
55827;SDS011;41758;51.992;5.890;2023-04-01T02:28:47;19.02;;;11.02;;
55827;SDS011;41758;51.992;5.890;2023-04-01T02:31:15;13.90;;;9.02;;
55827;SDS011;41758;51.992;5.890;2023-04-01T02:33:42;20.33;;;9.43;;
55827;SDS011;41758;51.992;5.890;2023-04-01T02:36:14;18.23;;;9.98;;
55827;SDS011;41758;51.992;5.890;2023-04-01T02:38:41;17.75;;;9.38;;
55827;SDS011;41758;51.992;5.890;2023-04-01T02:41:09;20.58;;;11.05;;
55827;SDS011;41758;51.992;5.890;2023-04-01T02:43:35;20.88;;;10.63;;
55827;SDS011;41758;51.992;5.890;2023-04-01T02:46:01;20.60;;;11.38;;
55827;SDS011;41758;51.992;5.890;2023-04-01T02:48:27;20.60;;;11.38;;
55827;SDS011;41758;51.992;5.890;2023-04-01T02:50:53;20.70;;;10.43;;
55827;SDS011;41758;51.992;5.890;2023-04-01T02:53:19;17.23;;;9.63;;
55827;SDS011;41758;51.992;5.890;2023-04-01T02:55:45;18.42;;;9.45;;
55827;SDS011;41758;51.992;5.890;2023-04-01T02:58:11;15.50;;;9.63;;
55827;SDS011;41758;51.992;5.890;2023-04-01T03:00:37;18.27;;;9.45;;
55827;SDS011;41758;51.992;5.890;2023-04-01T03:03:03;14.00;;;8.07;;
55827;SDS011;41758;51.992;5.890;2023-04-01T03:05:29;13.57;;;8.90;;
55827;SDS011;41758;51.992;5.890;2023-04-01T03:07:55;11.30;;;7.78;;
55827;SDS011;41758;51.992;5.890;2023-04-01T03:10:22;15.27;;;9.55;;
55827;SDS011;41758;51.992;5.890;2023-04-01T03:12:47;13.82;;;9.02;;
55827;SDS011;41758;51.992;5.890;2023-04-01T03:15:13;12.73;;;9.65;;
55827;SDS011;41758;51.992;5.890;2023-04-01T03:17:40;10.50;;;8.85;;
55827;SDS011;41758;51.992;5.890;2023-04-01T03:20:07;14.57;;;9.18;;
55827;SDS011;41758;51.992;5.890;2023-04-01T03:22:34;12.32;;;9.43;;
55827;SDS011;41758;51.992;5.890;2023-04-01T03:25:01;10.95;;;9.32;;
55827;SDS011;41758;51.992;5.890;2023-04-01T03:27:28;13.02;;;9.43;;
55827;SDS011;41758;51.992;5.890;2023-04-01T03:29:53;12.55;;;10.52;;
55827;SDS011;41758;51.992;5.890;2023-04-01T03:32:19;14.13;;;10.57;;
55827;SDS011;41758;51.992;5.890;2023-04-01T03:34:45;13.93;;;10.40;;
55827;SDS011;41758;51.992;5.890;2023-04-01T03:37:11;12.80;;;10.45;;
55827;SDS011;41758;51.992;5.890;2023-04-01T03:39:37;12.45;;;10.43;;
55827;SDS011;41758;51.992;5.890;2023-04-01T03:42:02;13.70;;;11.02;;
55827;SDS011;41758;51.992;5.890;2023-04-01T03:44:32;10.50;;;9.38;;
55827;SDS011;41758;51.992;5.890;2023-04-01T03:46:59;11.77;;;10.35;;
55827;SDS011;41758;51.992;5.890;2023-04-01T03:49:25;13.60;;;10.52;;
55827;SDS011;41758;51.992;5.890;2023-04-01T03:51:51;14.18;;;11.75;;
55827;SDS011;41758;51.992;5.890;2023-04-01T03:54:17;14.52;;;11.85;;
55827;SDS011;41758;51.992;5.890;2023-04-01T03:56:45;16.00;;;12.30;;
55827;SDS011;41758;51.992;5.890;2023-04-01T03:59:11;17.65;;;11.15;;
55827;SDS011;41758;51.992;5.890;2023-04-01T04:01:37;14.77;;;12.55;;
55827;SDS011;41758;51.992;5.890;2023-04-01T04:04:03;21.88;;;12.60;;
55827;SDS011;41758;51.992;5.890;2023-04-01T04:06:30;17.65;;;13.13;;
55827;SDS011;41758;51.992;5.890;2023-04-01T04:08:56;13.75;;;11.32;;
55827;SDS011;41758;51.992;5.890;2023-04-01T04:11:22;12.85;;;11.13;;
55827;SDS011;41758;51.992;5.890;2023-04-01T04:13:50;11.60;;;9.80;;
55827;SDS011;41758;51.992;5.890;2023-04-01T04:16:17;14.68;;;12.07;;
55827;SDS011;41758;51.992;5.890;2023-04-01T04:18:48;17.35;;;13.23;;
55827;SDS011;41758;51.992;5.890;2023-04-01T04:21:14;14.10;;;12.50;;
55827;SDS011;41758;51.992;5.890;2023-04-01T04:23:40;13.88;;;12.40;;
55827;SDS011;41758;51.992;5.890;2023-04-01T04:26:07;17.75;;;13.75;;
55827;SDS011;41758;51.992;5.890;2023-04-01T04:28:35;15.73;;;12.32;;
55827;SDS011;41758;51.992;5.890;2023-04-01T04:31:01;16.55;;;11.95;;
55827;SDS011;41758;51.992;5.890;2023-04-01T04:33:30;18.45;;;13.85;;
55827;SDS011;41758;51.992;5.890;2023-04-01T04:35:56;17.90;;;13.98;;
55827;SDS011;41758;51.992;5.890;2023-04-01T04:38:23;16.83;;;13.25;;
55827;SDS011;41758;51.992;5.890;2023-04-01T04:40:49;18.02;;;13.27;;
55827;SDS011;41758;51.992;5.890;2023-04-01T04:43:16;16.45;;;13.82;;
55827;SDS011;41758;51.992;5.890;2023-04-01T04:45:43;17.67;;;13.70;;
55827;SDS011;41758;51.992;5.890;2023-04-01T04:48:14;18.63;;;13.77;;
55827;SDS011;41758;51.992;5.890;2023-04-01T04:50:44;15.73;;;13.90;;
55827;SDS011;41758;51.992;5.890;2023-04-01T04:53:17;13.93;;;12.43;;
55827;SDS011;41758;51.992;5.890;2023-04-01T04:55:44;13.48;;;11.98;;
55827;SDS011;41758;51.992;5.890;2023-04-01T04:58:22;15.18;;;12.00;;
55827;SDS011;41758;51.992;5.890;2023-04-01T05:00:48;14.05;;;11.95;;
55827;SDS011;41758;51.992;5.890;2023-04-01T05:03:22;13.10;;;11.38;;
55827;SDS011;41758;51.992;5.890;2023-04-01T05:05:49;13.32;;;11.70;;
55827;SDS011;41758;51.992;5.890;2023-04-01T05:08:16;13.40;;;11.70;;
55827;SDS011;41758;51.992;5.890;2023-04-01T05:10:41;13.63;;;11.70;;
55827;SDS011;41758;51.992;5.890;2023-04-01T05:13:07;11.70;;;10.05;;
55827;SDS011;41758;51.992;5.890;2023-04-01T05:15:33;12.18;;;10.02;;
55827;SDS011;41758;51.992;5.890;2023-04-01T05:18:00;11.63;;;9.40;;
55827;SDS011;41758;51.992;5.890;2023-04-01T05:20:26;11.05;;;9.18;;
55827;SDS011;41758;51.992;5.890;2023-04-01T05:22:55;12.05;;;10.75;;
55827;SDS011;41758;51.992;5.890;2023-04-01T05:25:22;11.48;;;10.23;;
55827;SDS011;41758;51.992;5.890;2023-04-01T05:27:47;12.48;;;9.68;;
55827;SDS011;41758;51.992;5.890;2023-04-01T05:30:13;9.88;;;8.88;;
55827;SDS011;41758;51.992;5.890;2023-04-01T05:32:59;10.27;;;9.25;;
55827;SDS011;41758;51.992;5.890;2023-04-01T05:35:25;11.25;;;9.07;;
55827;SDS011;41758;51.992;5.890;2023-04-01T05:37:51;12.18;;;7.50;;
55827;SDS011;41758;51.992;5.890;2023-04-01T05:40:17;8.90;;;6.72;;
55827;SDS011;41758;51.992;5.890;2023-04-01T05:42:43;9.98;;;8.13;;
55827;SDS011;41758;51.992;5.890;2023-04-01T05:45:10;19.90;;;14.98;;
55827;SDS011;41758;51.992;5.890;2023-04-01T05:48:03;16.10;;;12.07;;
55827;SDS011;41758;51.992;5.890;2023-04-01T05:50:35;11.85;;;10.13;;
55827;SDS011;41758;51.992;5.890;2023-04-01T05:53:01;16.23;;;10.88;;
55827;SDS011;41758;51.992;5.890;2023-04-01T05:55:27;14.13;;;11.70;;
55827;SDS011;41758;51.992;5.890;2023-04-01T05:57:53;14.52;;;11.65;;
55827;SDS011;41758;51.992;5.890;2023-04-01T06:00:18;15.30;;;12.32;;
55827;SDS011;41758;51.992;5.890;2023-04-01T06:02:45;24.10;;;15.77;;
55827;SDS011;41758;51.992;5.890;2023-04-01T06:05:17;20.10;;;13.35;;
55827;SDS011;41758;51.992;5.890;2023-04-01T06:07:45;21.45;;;13.70;;
55827;SDS011;41758;51.992;5.890;2023-04-01T06:10:19;23.27;;;14.68;;
55827;SDS011;41758;51.992;5.890;2023-04-01T06:15:48;24.55;;;16.13;;
55827;SDS011;41758;51.992;5.890;2023-04-01T06:29:57;28.40;;;15.93;;
55827;SDS011;41758;51.992;5.890;2023-04-01T06:32:36;27.05;;;17.55;;
55827;SDS011;41758;51.992;5.890;2023-04-01T06:35:33;36.65;;;17.50;;
55827;SDS011;41758;51.992;5.890;2023-04-01T06:43:59;41.78;;;17.23;;
55827;SDS011;41758;51.992;5.890;2023-04-01T06:46:58;30.77;;;16.48;;
55827;SDS011;41758;51.992;5.890;2023-04-01T06:56:15;22.23;;;11.82;;
55827;SDS011;41758;51.992;5.890;2023-04-01T06:59:12;22.25;;;11.60;;
55827;SDS011;41758;51.992;5.890;2023-04-01T07:01:45;19.67;;;10.63;;
55827;SDS011;41758;51.992;5.890;2023-04-01T07:04:23;21.48;;;9.30;;
55827;SDS011;41758;51.992;5.890;2023-04-01T07:06:52;17.63;;;8.70;;
55827;SDS011;41758;51.992;5.890;2023-04-01T07:09:24;16.58;;;7.90;;
55827;SDS011;41758;51.992;5.890;2023-04-01T07:12:15;13.90;;;6.95;;
55827;SDS011;41758;51.992;5.890;2023-04-01T07:15:10;12.50;;;7.15;;
55827;SDS011;41758;51.992;5.890;2023-04-01T07:17:44;15.15;;;7.25;;
55827;SDS011;41758;51.992;5.890;2023-04-01T07:20:31;15.77;;;6.82;;
55827;SDS011;41758;51.992;5.890;2023-04-01T07:23:05;14.63;;;6.15;;
55827;SDS011;41758;51.992;5.890;2023-04-01T07:26:23;11.50;;;5.30;;
55827;SDS011;41758;51.992;5.890;2023-04-01T07:28:59;12.98;;;8.00;;
55827;SDS011;41758;51.992;5.890;2023-04-01T07:32:06;10.77;;;7.10;;
55827;SDS011;41758;51.992;5.890;2023-04-01T07:49:06;5.97;;;4.00;;
55827;SDS011;41758;51.992;5.890;2023-04-01T07:57:19;6.63;;;3.50;;
55827;SDS011;41758;51.992;5.890;2023-04-01T08:02:46;6.97;;;3.53;;
55827;SDS011;41758;51.992;5.890;2023-04-01T08:11:17;7.68;;;4.03;;
55827;SDS011;41758;51.992;5.890;2023-04-01T08:20:04;10.52;;;5.20;;
55827;SDS011;41758;51.992;5.890;2023-04-01T08:22:47;8.25;;;4.65;;
55827;SDS011;41758;51.992;5.890;2023-04-01T08:25:25;6.22;;;4.03;;
55827;SDS011;41758;51.992;5.890;2023-04-01T08:30:52;6.35;;;3.47;;
55827;SDS011;41758;51.992;5.890;2023-04-01T08:33:27;5.25;;;3.20;;
55827;SDS011;41758;51.992;5.890;2023-04-01T08:50:19;59.13;;;46.72;;
55827;SDS011;41758;51.992;5.890;2023-04-01T08:56:23;18.30;;;10.10;;
55827;SDS011;41758;51.992;5.890;2023-04-01T08:59:00;10.82;;;6.18;;
55827;SDS011;41758;51.992;5.890;2023-04-01T09:02:05;29.42;;;21.90;;
55827;SDS011;41758;51.992;5.890;2023-04-01T09:08:03;3.00;;;2.10;;
55827;SDS011;41758;51.992;5.890;2023-04-01T09:10:56;3.63;;;2.13;;
55827;SDS011;41758;51.992;5.890;2023-04-01T09:14:03;5.10;;;2.08;;
55827;SDS011;41758;51.992;5.890;2023-04-01T09:25:21;5.28;;;2.72;;
55827;SDS011;41758;51.992;5.890;2023-04-01T09:39:42;5.78;;;3.30;;
55827;SDS011;41758;51.992;5.890;2023-04-01T09:48:36;5.32;;;3.50;;
55827;SDS011;41758;51.992;5.890;2023-04-01T09:59:49;5.20;;;3.53;;
55827;SDS011;41758;51.992;5.890;2023-04-01T10:03:01;6.78;;;3.75;;
55827;SDS011;41758;51.992;5.890;2023-04-01T10:12:19;7.13;;;4.70;;
55827;SDS011;41758;51.992;5.890;2023-04-01T10:17:56;8.02;;;5.20;;
55827;SDS011;41758;51.992;5.890;2023-04-01T10:20:42;7.75;;;5.57;;
55827;SDS011;41758;51.992;5.890;2023-04-01T10:23:27;9.23;;;5.80;;
55827;SDS011;41758;51.992;5.890;2023-04-01T10:34:54;8.32;;;6.25;;
55827;SDS011;41758;51.992;5.890;2023-04-01T10:37:59;10.38;;;7.32;;
55827;SDS011;41758;51.992;5.890;2023-04-01T10:41:05;10.27;;;6.75;;
55827;SDS011;41758;51.992;5.890;2023-04-01T11:00:14;17.23;;;9.85;;
55827;SDS011;41758;51.992;5.890;2023-04-01T11:08:57;13.25;;;9.55;;
55827;SDS011;41758;51.992;5.890;2023-04-01T11:15:00;12.77;;;8.75;;
55827;SDS011;41758;51.992;5.890;2023-04-01T11:17:43;13.18;;;9.10;;
55827;SDS011;41758;51.992;5.890;2023-04-01T11:31:35;6.47;;;3.05;;
55827;SDS011;41758;51.992;5.890;2023-04-01T11:34:11;5.10;;;2.97;;
55827;SDS011;41758;51.992;5.890;2023-04-01T11:36:50;6.90;;;3.27;;
55827;SDS011;41758;51.992;5.890;2023-04-01T11:42:51;5.25;;;2.90;;
55827;SDS011;41758;51.992;5.890;2023-04-01T11:45:46;4.60;;;2.95;;
55827;SDS011;41758;51.992;5.890;2023-04-01T11:59:39;4.32;;;2.40;;
55827;SDS011;41758;51.992;5.890;2023-04-01T12:05:22;4.65;;;2.65;;
55827;SDS011;41758;51.992;5.890;2023-04-01T12:11:21;4.45;;;2.85;;
55827;SDS011;41758;51.992;5.890;2023-04-01T12:16:41;4.85;;;3.25;;
55827;SDS011;41758;51.992;5.890;2023-04-01T12:49:23;5.93;;;4.20;;
55827;SDS011;41758;51.992;5.890;2023-04-01T12:52:13;7.50;;;4.95;;
55827;SDS011;41758;51.992;5.890;2023-04-01T13:03:24;7.13;;;5.60;;
55827;SDS011;41758;51.992;5.890;2023-04-01T13:12:00;8.68;;;6.00;;
55827;SDS011;41758;51.992;5.890;2023-04-01T13:14:59;6.43;;;4.85;;
55827;SDS011;41758;51.992;5.890;2023-04-01T13:17:43;6.18;;;4.70;;
55827;SDS011;41758;51.992;5.890;2023-04-01T13:20:19;7.53;;;4.85;;
55827;SDS011;41758;51.992;5.890;2023-04-01T13:26:28;6.75;;;4.93;;
55827;SDS011;41758;51.992;5.890;2023-04-01T13:34:17;7.72;;;5.10;;
55827;SDS011;41758;51.992;5.890;2023-04-01T13:42:37;5.70;;;3.83;;
55827;SDS011;41758;51.992;5.890;2023-04-01T14:01:47;6.85;;;3.35;;
55827;SDS011;41758;51.992;5.890;2023-04-01T14:26:33;6.47;;;4.15;;
55827;SDS011;41758;51.992;5.890;2023-04-01T14:32:12;8.32;;;4.00;;
55827;SDS011;41758;51.992;5.890;2023-04-01T14:34:59;7.10;;;3.63;;
55827;SDS011;41758;51.992;5.890;2023-04-01T14:40:48;6.95;;;3.70;;
55827;SDS011;41758;51.992;5.890;2023-04-01T14:43:45;5.72;;;3.17;;
55827;SDS011;41758;51.992;5.890;2023-04-01T14:49:20;5.80;;;3.20;;
55827;SDS011;41758;51.992;5.890;2023-04-01T14:51:55;5.57;;;2.92;;
55827;SDS011;41758;51.992;5.890;2023-04-01T14:54:35;4.97;;;3.40;;
55827;SDS011;41758;51.992;5.890;2023-04-01T14:59:51;5.60;;;3.20;;
55827;SDS011;41758;51.992;5.890;2023-04-01T15:07:42;7.72;;;3.45;;
55827;SDS011;41758;51.992;5.890;2023-04-01T15:21:48;7.93;;;4.63;;
55827;SDS011;41758;51.992;5.890;2023-04-01T15:24:26;8.18;;;5.20;;
55827;SDS011;41758;51.992;5.890;2023-04-01T15:30:17;17.55;;;6.68;;
55827;SDS011;41758;51.992;5.890;2023-04-01T15:36:13;8.13;;;5.68;;
55827;SDS011;41758;51.992;5.890;2023-04-01T15:38:48;10.52;;;6.30;;
55827;SDS011;41758;51.992;5.890;2023-04-01T15:52:22;10.05;;;8.25;;
55827;SDS011;41758;51.992;5.890;2023-04-01T16:00:33;7.63;;;6.80;;
55827;SDS011;41758;51.992;5.890;2023-04-01T16:03:33;7.90;;;6.97;;
55827;SDS011;41758;51.992;5.890;2023-04-01T16:11:23;7.07;;;6.13;;
55827;SDS011;41758;51.992;5.890;2023-04-01T16:19:55;7.32;;;6.53;;
55827;SDS011;41758;51.992;5.890;2023-04-01T16:22:35;8.45;;;7.25;;
55827;SDS011;41758;51.992;5.890;2023-04-01T16:28:09;10.60;;;8.10;;
55827;SDS011;41758;51.992;5.890;2023-04-01T16:31:16;8.60;;;7.53;;
55827;SDS011;41758;51.992;5.890;2023-04-01T16:36:30;9.48;;;7.90;;
55827;SDS011;41758;51.992;5.890;2023-04-01T16:47:40;8.63;;;7.18;;
55827;SDS011;41758;51.992;5.890;2023-04-01T16:50:23;9.23;;;7.88;;
55827;SDS011;41758;51.992;5.890;2023-04-01T16:53:02;9.05;;;7.45;;
55827;SDS011;41758;51.992;5.890;2023-04-01T16:55:49;8.68;;;7.10;;
55827;SDS011;41758;51.992;5.890;2023-04-01T16:58:34;8.52;;;7.25;;
55827;SDS011;41758;51.992;5.890;2023-04-01T17:01:12;8.80;;;6.93;;
55827;SDS011;41758;51.992;5.890;2023-04-01T17:03:46;10.68;;;7.40;;
55827;SDS011;41758;51.992;5.890;2023-04-01T17:06:20;7.78;;;6.75;;
55827;SDS011;41758;51.992;5.890;2023-04-01T17:17:51;8.55;;;7.05;;
55827;SDS011;41758;51.992;5.890;2023-04-01T17:34:21;9.73;;;8.75;;
55827;SDS011;41758;51.992;5.890;2023-04-01T17:36:58;9.57;;;8.57;;
55827;SDS011;41758;51.992;5.890;2023-04-01T17:42:19;10.25;;;8.60;;
55827;SDS011;41758;51.992;5.890;2023-04-01T17:48:06;9.98;;;8.93;;
55827;SDS011;41758;51.992;5.890;2023-04-01T17:59:16;17.10;;;14.43;;
55827;SDS011;41758;51.992;5.890;2023-04-01T18:01:47;14.38;;;12.52;;
55827;SDS011;41758;51.992;5.890;2023-04-01T18:10:14;13.23;;;11.93;;
55827;SDS011;41758;51.992;5.890;2023-04-01T18:21:10;12.32;;;11.00;;
55827;SDS011;41758;51.992;5.890;2023-04-01T18:26:38;12.20;;;11.00;;
55827;SDS011;41758;51.992;5.890;2023-04-01T18:31:38;12.10;;;10.68;;
55827;SDS011;41758;51.992;5.890;2023-04-01T18:36:41;13.63;;;12.32;;
55827;SDS011;41758;51.992;5.890;2023-04-01T18:39:14;14.80;;;13.40;;
55827;SDS011;41758;51.992;5.890;2023-04-01T18:41:49;14.15;;;12.75;;
55827;SDS011;41758;51.992;5.890;2023-04-01T18:47:20;15.00;;;13.50;;
55827;SDS011;41758;51.992;5.890;2023-04-01T18:56:06;14.93;;;13.43;;
55827;SDS011;41758;51.992;5.890;2023-04-01T18:59:05;14.30;;;13.00;;
55827;SDS011;41758;51.992;5.890;2023-04-01T19:07:45;15.70;;;14.10;;
55827;SDS011;41758;51.992;5.890;2023-04-01T19:15:31;14.25;;;12.88;;
55827;SDS011;41758;51.992;5.890;2023-04-01T19:20:50;14.75;;;13.25;;
55827;SDS011;41758;51.992;5.890;2023-04-01T19:26:17;15.73;;;14.23;;
55827;SDS011;41758;51.992;5.890;2023-04-01T19:29:06;14.95;;;13.45;;
55827;SDS011;41758;51.992;5.890;2023-04-01T19:34:57;16.13;;;14.52;;
55827;SDS011;41758;51.992;5.890;2023-04-01T19:40:19;17.77;;;15.93;;
55827;SDS011;41758;51.992;5.890;2023-04-01T19:51:25;16.27;;;14.60;;
55827;SDS011;41758;51.992;5.890;2023-04-01T19:53:59;16.55;;;14.85;;
55827;SDS011;41758;51.992;5.890;2023-04-01T19:56:34;15.18;;;13.63;;
55827;SDS011;41758;51.992;5.890;2023-04-01T20:04:47;16.67;;;15.07;;
55827;SDS011;41758;51.992;5.890;2023-04-01T20:15:58;16.20;;;14.60;;
55827;SDS011;41758;51.992;5.890;2023-04-01T20:26:40;17.98;;;14.88;;
55827;SDS011;41758;51.992;5.890;2023-04-01T20:34:58;16.55;;;14.85;;
55827;SDS011;41758;51.992;5.890;2023-04-01T20:40:41;18.92;;;17.08;;
55827;SDS011;41758;51.992;5.890;2023-04-01T20:43:29;18.63;;;16.80;;
55827;SDS011;41758;51.992;5.890;2023-04-01T20:46:19;20.23;;;18.27;;
55827;SDS011;41758;51.992;5.890;2023-04-01T20:51:43;20.42;;;18.42;;
55827;SDS011;41758;51.992;5.890;2023-04-01T20:57:32;20.75;;;18.20;;
55827;SDS011;41758;51.992;5.890;2023-04-01T21:11:38;21.77;;;19.65;;
55827;SDS011;41758;51.992;5.890;2023-04-01T21:14:32;24.15;;;21.27;;
55827;SDS011;41758;51.992;5.890;2023-04-01T21:17:07;20.58;;;18.48;;
55827;SDS011;41758;51.992;5.890;2023-04-01T21:25:50;21.95;;;19.85;;
55827;SDS011;41758;51.992;5.890;2023-04-01T21:38:41;20.80;;;18.60;;
55827;SDS011;41758;51.992;5.890;2023-04-01T22:05:55;18.25;;;16.45;;
55827;SDS011;41758;51.992;5.890;2023-04-01T22:14:08;17.20;;;15.40;;
55827;SDS011;41758;51.992;5.890;2023-04-01T22:17:25;16.00;;;14.50;;
55827;SDS011;41758;51.992;5.890;2023-04-01T22:25:31;20.73;;;18.63;;
55827;SDS011;41758;51.992;5.890;2023-04-01T22:28:03;19.70;;;17.70;;
55827;SDS011;41758;51.992;5.890;2023-04-01T22:30:56;18.77;;;16.80;;
55827;SDS011;41758;51.992;5.890;2023-04-01T22:36:28;19.15;;;17.25;;
55827;SDS011;41758;51.992;5.890;2023-04-01T22:49:44;19.17;;;17.27;;
55827;SDS011;41758;51.992;5.890;2023-04-01T22:55:05;17.83;;;16.05;;
55827;SDS011;41758;51.992;5.890;2023-04-01T23:05:28;18.13;;;15.55;;
55827;SDS011;41758;51.992;5.890;2023-04-01T23:08:01;20.23;;;18.13;;
55827;SDS011;41758;51.992;5.890;2023-04-01T23:10:58;19.13;;;17.15;;
55827;SDS011;41758;51.992;5.890;2023-04-01T23:13:41;19.02;;;17.13;;
55827;SDS011;41758;51.992;5.890;2023-04-01T23:16:13;19.20;;;17.33;;
55827;SDS011;41758;51.992;5.890;2023-04-01T23:24:18;22.15;;;19.92;;
55827;SDS011;41758;51.992;5.890;2023-04-01T23:27:01;20.52;;;18.42;;
55827;SDS011;41758;51.992;5.890;2023-04-01T23:29:35;21.85;;;19.65;;
55827;SDS011;41758;51.992;5.890;2023-04-01T23:32:05;24.50;;;21.88;;
55827;SDS011;41758;51.992;5.890;2023-04-01T23:34:39;23.10;;;20.70;;
55827;SDS011;41758;51.992;5.890;2023-04-01T23:37:11;23.85;;;21.35;;
55827;SDS011;41758;51.992;5.890;2023-04-01T23:39:41;25.20;;;22.50;;
55827;SDS011;41758;51.992;5.890;2023-04-01T23:42:14;23.30;;;20.90;;
55827;SDS011;41758;51.992;5.890;2023-04-01T23:44:50;25.27;;;22.75;;
55827;SDS011;41758;51.992;5.890;2023-04-01T23:47:21;22.65;;;20.45;;
55827;SDS011;41758;51.992;5.890;2023-04-01T23:49:59;22.23;;;19.92;;
55827;SDS011;41758;51.992;5.890;2023-04-01T23:52:35;21.45;;;18.20;;
55827;SDS011;41758;51.992;5.890;2023-04-01T23:55:38;19.55;;;17.55;;
